sensor_id;sensor_type;location;lat;lon;timestamp;P1;durP1;ratioP1;P2;durP2;ratioP2
6348;SDS011;3207;42.648;23.406;2023-11-21T00:00:37;55.13;;;35.37;;
6348;SDS011;3207;42.648;23.406;2023-11-21T00:03:04;48.53;;;32.80;;
6348;SDS011;3207;42.648;23.406;2023-11-21T00:05:32;50.88;;;33.42;;
6348;SDS011;3207;42.648;23.406;2023-11-21T00:07:58;52.90;;;33.45;;
6348;SDS011;3207;42.648;23.406;2023-11-21T00:10:25;46.50;;;31.97;;
6348;SDS011;3207;42.648;23.406;2023-11-21T00:12:51;42.70;;;31.00;;
6348;SDS011;3207;42.648;23.406;2023-11-21T00:15:21;54.22;;;32.67;;
6348;SDS011;3207;42.648;23.406;2023-11-21T00:17:48;51.85;;;32.55;;
6348;SDS011;3207;42.648;23.406;2023-11-21T00:20:15;49.72;;;35.25;;
6348;SDS011;3207;42.648;23.406;2023-11-21T00:22:41;54.88;;;35.47;;
6348;SDS011;3207;42.648;23.406;2023-11-21T00:25:08;56.30;;;35.50;;
6348;SDS011;3207;42.648;23.406;2023-11-21T00:27:35;56.30;;;35.47;;
6348;SDS011;3207;42.648;23.406;2023-11-21T00:30:02;54.60;;;36.45;;
6348;SDS011;3207;42.648;23.406;2023-11-21T00:32:32;58.33;;;38.72;;
6348;SDS011;3207;42.648;23.406;2023-11-21T00:34:59;64.43;;;39.37;;
6348;SDS011;3207;42.648;23.406;2023-11-21T00:37:25;56.53;;;39.67;;
6348;SDS011;3207;42.648;23.406;2023-11-21T00:39:52;59.28;;;39.55;;
6348;SDS011;3207;42.648;23.406;2023-11-21T00:42:18;62.20;;;39.00;;
6348;SDS011;3207;42.648;23.406;2023-11-21T00:44:46;60.35;;;43.00;;
6348;SDS011;3207;42.648;23.406;2023-11-21T00:47:13;61.58;;;42.17;;
6348;SDS011;3207;42.648;23.406;2023-11-21T00:49:41;61.50;;;40.20;;
6348;SDS011;3207;42.648;23.406;2023-11-21T00:52:09;62.73;;;42.17;;
6348;SDS011;3207;42.648;23.406;2023-11-21T00:54:35;60.80;;;40.80;;
6348;SDS011;3207;42.648;23.406;2023-11-21T00:57:02;59.20;;;40.73;;
6348;SDS011;3207;42.648;23.406;2023-11-21T00:59:29;58.60;;;40.03;;
6348;SDS011;3207;42.648;23.406;2023-11-21T01:01:55;61.55;;;40.20;;
6348;SDS011;3207;42.648;23.406;2023-11-21T01:04:25;60.35;;;40.90;;
6348;SDS011;3207;42.648;23.406;2023-11-21T01:06:53;67.93;;;44.37;;
6348;SDS011;3207;42.648;23.406;2023-11-21T01:09:20;61.43;;;40.63;;
6348;SDS011;3207;42.648;23.406;2023-11-21T01:11:46;63.50;;;45.70;;
6348;SDS011;3207;42.648;23.406;2023-11-21T01:14:13;61.20;;;43.50;;
6348;SDS011;3207;42.648;23.406;2023-11-21T01:16:39;60.63;;;44.53;;
6348;SDS011;3207;42.648;23.406;2023-11-21T01:19:06;63.97;;;43.67;;
6348;SDS011;3207;42.648;23.406;2023-11-21T01:21:32;59.67;;;41.27;;
6348;SDS011;3207;42.648;23.406;2023-11-21T01:24:00;59.97;;;38.70;;
6348;SDS011;3207;42.648;23.406;2023-11-21T01:26:27;55.03;;;36.47;;
6348;SDS011;3207;42.648;23.406;2023-11-21T01:28:54;49.90;;;35.80;;
6348;SDS011;3207;42.648;23.406;2023-11-21T01:31:21;51.23;;;35.90;;
6348;SDS011;3207;42.648;23.406;2023-11-21T01:33:47;51.80;;;34.80;;
6348;SDS011;3207;42.648;23.406;2023-11-21T01:36:14;42.73;;;30.90;;
6348;SDS011;3207;42.648;23.406;2023-11-21T01:38:40;42.93;;;31.47;;
6348;SDS011;3207;42.648;23.406;2023-11-21T01:41:08;45.60;;;32.43;;
6348;SDS011;3207;42.648;23.406;2023-11-21T01:43:36;42.37;;;30.70;;
6348;SDS011;3207;42.648;23.406;2023-11-21T01:46:03;48.07;;;32.13;;
6348;SDS011;3207;42.648;23.406;2023-11-21T01:48:31;44.73;;;31.37;;
6348;SDS011;3207;42.648;23.406;2023-11-21T01:50:58;38.97;;;30.07;;
6348;SDS011;3207;42.648;23.406;2023-11-21T01:53:25;36.47;;;28.87;;
6348;SDS011;3207;42.648;23.406;2023-11-21T01:55:52;38.03;;;27.47;;
6348;SDS011;3207;42.648;23.406;2023-11-21T01:58:21;36.87;;;27.40;;
6348;SDS011;3207;42.648;23.406;2023-11-21T02:00:47;37.47;;;26.53;;
6348;SDS011;3207;42.648;23.406;2023-11-21T02:03:16;33.77;;;26.03;;
6348;SDS011;3207;42.648;23.406;2023-11-21T02:05:42;30.93;;;25.20;;
6348;SDS011;3207;42.648;23.406;2023-11-21T02:08:09;31.90;;;24.37;;
6348;SDS011;3207;42.648;23.406;2023-11-21T02:10:36;35.63;;;24.17;;
6348;SDS011;3207;42.648;23.406;2023-11-21T02:13:02;32.27;;;24.10;;
6348;SDS011;3207;42.648;23.406;2023-11-21T02:15:29;27.10;;;21.60;;
6348;SDS011;3207;42.648;23.406;2023-11-21T02:17:56;31.73;;;23.23;;
6348;SDS011;3207;42.648;23.406;2023-11-21T02:20:24;22.53;;;18.40;;
6348;SDS011;3207;42.648;23.406;2023-11-21T02:22:53;21.60;;;17.37;;
6348;SDS011;3207;42.648;23.406;2023-11-21T02:25:23;21.97;;;18.10;;
6348;SDS011;3207;42.648;23.406;2023-11-21T02:27:49;23.80;;;18.70;;
6348;SDS011;3207;42.648;23.406;2023-11-21T02:30:16;26.07;;;18.80;;
6348;SDS011;3207;42.648;23.406;2023-11-21T02:32:43;24.77;;;17.87;;
6348;SDS011;3207;42.648;23.406;2023-11-21T02:35:11;24.30;;;17.87;;
6348;SDS011;3207;42.648;23.406;2023-11-21T02:37:37;25.83;;;18.87;;
6348;SDS011;3207;42.648;23.406;2023-11-21T02:40:08;22.30;;;17.83;;
6348;SDS011;3207;42.648;23.406;2023-11-21T02:42:37;23.83;;;18.07;;
6348;SDS011;3207;42.648;23.406;2023-11-21T02:45:04;23.80;;;19.60;;
6348;SDS011;3207;42.648;23.406;2023-11-21T02:47:31;21.73;;;17.87;;
6348;SDS011;3207;42.648;23.406;2023-11-21T02:49:58;23.43;;;18.77;;
6348;SDS011;3207;42.648;23.406;2023-11-21T02:52:25;23.70;;;16.40;;
6348;SDS011;3207;42.648;23.406;2023-11-21T02:54:52;24.07;;;16.60;;
6348;SDS011;3207;42.648;23.406;2023-11-21T02:57:20;19.30;;;15.10;;
6348;SDS011;3207;42.648;23.406;2023-11-21T02:59:46;16.47;;;13.73;;
6348;SDS011;3207;42.648;23.406;2023-11-21T03:02:13;16.53;;;14.03;;
6348;SDS011;3207;42.648;23.406;2023-11-21T03:04:40;16.40;;;12.37;;
6348;SDS011;3207;42.648;23.406;2023-11-21T03:07:07;15.13;;;13.18;;
6348;SDS011;3207;42.648;23.406;2023-11-21T03:09:34;15.00;;;11.57;;
6348;SDS011;3207;42.648;23.406;2023-11-21T03:12:01;15.15;;;12.45;;
6348;SDS011;3207;42.648;23.406;2023-11-21T03:14:29;22.80;;;18.97;;
6348;SDS011;3207;42.648;23.406;2023-11-21T03:16:55;27.93;;;19.67;;
6348;SDS011;3207;42.648;23.406;2023-11-21T03:19:22;24.48;;;20.48;;
6348;SDS011;3207;42.648;23.406;2023-11-21T03:21:48;25.67;;;20.10;;
6348;SDS011;3207;42.648;23.406;2023-11-21T03:24:15;25.90;;;23.10;;
6348;SDS011;3207;42.648;23.406;2023-11-21T03:26:44;31.63;;;23.97;;
6348;SDS011;3207;42.648;23.406;2023-11-21T03:29:10;31.83;;;24.50;;
6348;SDS011;3207;42.648;23.406;2023-11-21T03:31:38;30.60;;;24.20;;
6348;SDS011;3207;42.648;23.406;2023-11-21T03:34:05;34.53;;;24.33;;
6348;SDS011;3207;42.648;23.406;2023-11-21T03:36:31;29.30;;;23.03;;
6348;SDS011;3207;42.648;23.406;2023-11-21T03:38:58;27.63;;;22.27;;
6348;SDS011;3207;42.648;23.406;2023-11-21T03:41:24;32.17;;;23.77;;
6348;SDS011;3207;42.648;23.406;2023-11-21T03:43:51;26.97;;;20.87;;
6348;SDS011;3207;42.648;23.406;2023-11-21T03:46:18;25.43;;;21.60;;
6348;SDS011;3207;42.648;23.406;2023-11-21T03:48:46;27.43;;;22.43;;
6348;SDS011;3207;42.648;23.406;2023-11-21T03:51:12;27.63;;;21.40;;
6348;SDS011;3207;42.648;23.406;2023-11-21T03:53:39;26.10;;;20.70;;
6348;SDS011;3207;42.648;23.406;2023-11-21T03:56:05;25.20;;;21.27;;
6348;SDS011;3207;42.648;23.406;2023-11-21T03:58:32;27.30;;;22.67;;
6348;SDS011;3207;42.648;23.406;2023-11-21T04:00:59;25.20;;;21.13;;
6348;SDS011;3207;42.648;23.406;2023-11-21T04:03:26;23.75;;;20.70;;
6348;SDS011;3207;42.648;23.406;2023-11-21T04:05:54;24.73;;;20.63;;
6348;SDS011;3207;42.648;23.406;2023-11-21T04:08:21;28.03;;;22.37;;
6348;SDS011;3207;42.648;23.406;2023-11-21T04:10:47;25.83;;;20.87;;
6348;SDS011;3207;42.648;23.406;2023-11-21T04:13:14;31.10;;;21.23;;
6348;SDS011;3207;42.648;23.406;2023-11-21T04:15:41;24.80;;;21.00;;
6348;SDS011;3207;42.648;23.406;2023-11-21T04:18:07;25.13;;;20.50;;
6348;SDS011;3207;42.648;23.406;2023-11-21T04:20:34;24.20;;;20.53;;
6348;SDS011;3207;42.648;23.406;2023-11-21T04:23:02;25.83;;;20.85;;
6348;SDS011;3207;42.648;23.406;2023-11-21T04:25:29;27.13;;;20.55;;
6348;SDS011;3207;42.648;23.406;2023-11-21T04:27:55;22.90;;;20.17;;
6348;SDS011;3207;42.648;23.406;2023-11-21T04:30:22;24.55;;;19.50;;
6348;SDS011;3207;42.648;23.406;2023-11-21T04:32:49;22.67;;;19.52;;
6348;SDS011;3207;42.648;23.406;2023-11-21T04:35:17;25.10;;;19.38;;
6348;SDS011;3207;42.648;23.406;2023-11-21T04:37:43;23.48;;;18.65;;
6348;SDS011;3207;42.648;23.406;2023-11-21T04:40:12;22.05;;;17.67;;
6348;SDS011;3207;42.648;23.406;2023-11-21T04:42:38;20.38;;;18.02;;
6348;SDS011;3207;42.648;23.406;2023-11-21T04:45:05;20.95;;;18.60;;
6348;SDS011;3207;42.648;23.406;2023-11-21T04:47:34;20.10;;;17.70;;
6348;SDS011;3207;42.648;23.406;2023-11-21T04:50:01;19.67;;;16.88;;
6348;SDS011;3207;42.648;23.406;2023-11-21T04:52:28;19.58;;;17.58;;
6348;SDS011;3207;42.648;23.406;2023-11-21T04:54:55;20.15;;;16.80;;
6348;SDS011;3207;42.648;23.406;2023-11-21T04:57:24;20.25;;;17.17;;
6348;SDS011;3207;42.648;23.406;2023-11-21T04:59:51;20.52;;;17.95;;
6348;SDS011;3207;42.648;23.406;2023-11-21T05:02:18;18.70;;;16.50;;
6348;SDS011;3207;42.648;23.406;2023-11-21T05:04:46;21.23;;;17.98;;
6348;SDS011;3207;42.648;23.406;2023-11-21T05:07:12;19.30;;;16.90;;
6348;SDS011;3207;42.648;23.406;2023-11-21T05:09:40;19.95;;;16.63;;
6348;SDS011;3207;42.648;23.406;2023-11-21T05:12:09;22.73;;;17.33;;
6348;SDS011;3207;42.648;23.406;2023-11-21T05:14:37;21.80;;;16.67;;
6348;SDS011;3207;42.648;23.406;2023-11-21T05:17:04;20.80;;;16.27;;
6348;SDS011;3207;42.648;23.406;2023-11-21T05:19:30;18.20;;;15.77;;
6348;SDS011;3207;42.648;23.406;2023-11-21T05:21:57;17.13;;;14.57;;
6348;SDS011;3207;42.648;23.406;2023-11-21T05:24:25;18.10;;;15.52;;
6348;SDS011;3207;42.648;23.406;2023-11-21T05:26:52;19.60;;;16.37;;
6348;SDS011;3207;42.648;23.406;2023-11-21T05:29:18;16.50;;;14.60;;
6348;SDS011;3207;42.648;23.406;2023-11-21T05:31:46;17.15;;;15.15;;
6348;SDS011;3207;42.648;23.406;2023-11-21T05:34:13;18.60;;;15.32;;
6348;SDS011;3207;42.648;23.406;2023-11-21T05:36:40;18.95;;;15.50;;
6348;SDS011;3207;42.648;23.406;2023-11-21T05:39:06;17.10;;;14.90;;
6348;SDS011;3207;42.648;23.406;2023-11-21T05:41:33;17.10;;;15.30;;
6348;SDS011;3207;42.648;23.406;2023-11-21T05:43:59;19.70;;;16.20;;
6348;SDS011;3207;42.648;23.406;2023-11-21T05:46:26;20.45;;;16.30;;
6348;SDS011;3207;42.648;23.406;2023-11-21T05:48:56;19.13;;;16.45;;
6348;SDS011;3207;42.648;23.406;2023-11-21T05:51:23;20.17;;;16.60;;
6348;SDS011;3207;42.648;23.406;2023-11-21T05:53:50;19.90;;;15.85;;
6348;SDS011;3207;42.648;23.406;2023-11-21T05:56:16;20.10;;;16.05;;
6348;SDS011;3207;42.648;23.406;2023-11-21T05:58:43;19.85;;;17.25;;
6348;SDS011;3207;42.648;23.406;2023-11-21T06:01:10;20.17;;;17.58;;
6348;SDS011;3207;42.648;23.406;2023-11-21T06:03:38;21.90;;;19.42;;
6348;SDS011;3207;42.648;23.406;2023-11-21T06:06:06;22.05;;;18.55;;
6348;SDS011;3207;42.648;23.406;2023-11-21T06:08:33;22.73;;;17.35;;
6348;SDS011;3207;42.648;23.406;2023-11-21T06:10:59;22.60;;;17.05;;
6348;SDS011;3207;42.648;23.406;2023-11-21T06:13:26;21.73;;;17.10;;
6348;SDS011;3207;42.648;23.406;2023-11-21T06:15:53;20.52;;;16.83;;
6348;SDS011;3207;42.648;23.406;2023-11-21T06:18:20;22.48;;;16.98;;
6348;SDS011;3207;42.648;23.406;2023-11-21T06:20:46;19.95;;;16.13;;
6348;SDS011;3207;42.648;23.406;2023-11-21T06:23:14;21.38;;;16.50;;
6348;SDS011;3207;42.648;23.406;2023-11-21T06:25:41;17.70;;;15.65;;
6348;SDS011;3207;42.648;23.406;2023-11-21T06:28:08;18.80;;;14.93;;
6348;SDS011;3207;42.648;23.406;2023-11-21T06:30:35;18.30;;;15.02;;
6348;SDS011;3207;42.648;23.406;2023-11-21T06:33:01;20.92;;;16.33;;
6348;SDS011;3207;42.648;23.406;2023-11-21T06:35:28;19.40;;;16.33;;
6348;SDS011;3207;42.648;23.406;2023-11-21T06:37:57;20.33;;;15.70;;
6348;SDS011;3207;42.648;23.406;2023-11-21T06:40:25;20.42;;;15.52;;
6348;SDS011;3207;42.648;23.406;2023-11-21T06:42:52;24.92;;;17.60;;
6348;SDS011;3207;42.648;23.406;2023-11-21T06:45:18;19.98;;;16.70;;
6348;SDS011;3207;42.648;23.406;2023-11-21T06:47:46;21.92;;;17.38;;
6348;SDS011;3207;42.648;23.406;2023-11-21T06:50:13;19.58;;;16.77;;
6348;SDS011;3207;42.648;23.406;2023-11-21T06:52:40;17.52;;;15.63;;
6348;SDS011;3207;42.648;23.406;2023-11-21T06:55:07;20.03;;;16.77;;
6348;SDS011;3207;42.648;23.406;2023-11-21T06:57:36;21.48;;;17.20;;
6348;SDS011;3207;42.648;23.406;2023-11-21T07:00:03;19.63;;;17.52;;
6348;SDS011;3207;42.648;23.406;2023-11-21T07:02:31;20.93;;;17.13;;
6348;SDS011;3207;42.648;23.406;2023-11-21T07:04:58;19.35;;;17.15;;
6348;SDS011;3207;42.648;23.406;2023-11-21T07:07:24;20.88;;;16.98;;
6348;SDS011;3207;42.648;23.406;2023-11-21T07:09:51;14.87;;;12.10;;
6348;SDS011;3207;42.648;23.406;2023-11-21T07:12:17;14.68;;;13.15;;
6348;SDS011;3207;42.648;23.406;2023-11-21T07:14:45;12.23;;;10.93;;
6348;SDS011;3207;42.648;23.406;2023-11-21T07:17:12;6.73;;;6.03;;
6348;SDS011;3207;42.648;23.406;2023-11-21T07:19:38;8.55;;;6.20;;
6348;SDS011;3207;42.648;23.406;2023-11-21T07:22:06;8.00;;;6.27;;
6348;SDS011;3207;42.648;23.406;2023-11-21T07:24:33;5.87;;;5.27;;
6348;SDS011;3207;42.648;23.406;2023-11-21T07:27:00;6.40;;;5.77;;
6348;SDS011;3207;42.648;23.406;2023-11-21T07:29:26;8.20;;;4.83;;
6348;SDS011;3207;42.648;23.406;2023-11-21T07:31:56;5.33;;;4.60;;
6348;SDS011;3207;42.648;23.406;2023-11-21T07:34:22;5.47;;;4.10;;
6348;SDS011;3207;42.648;23.406;2023-11-21T07:36:49;4.90;;;4.27;;
6348;SDS011;3207;42.648;23.406;2023-11-21T07:39:16;4.67;;;4.20;;
6348;SDS011;3207;42.648;23.406;2023-11-21T07:41:42;6.70;;;3.60;;
6348;SDS011;3207;42.648;23.406;2023-11-21T07:44:13;4.50;;;3.97;;
6348;SDS011;3207;42.648;23.406;2023-11-21T07:46:40;4.20;;;3.43;;
6348;SDS011;3207;42.648;23.406;2023-11-21T07:49:09;6.63;;;3.63;;
6348;SDS011;3207;42.648;23.406;2023-11-21T07:51:35;3.53;;;3.23;;
6348;SDS011;3207;42.648;23.406;2023-11-21T07:54:02;5.47;;;3.50;;
6348;SDS011;3207;42.648;23.406;2023-11-21T07:56:28;5.47;;;3.90;;
6348;SDS011;3207;42.648;23.406;2023-11-21T07:58:55;4.67;;;3.10;;
6348;SDS011;3207;42.648;23.406;2023-11-21T08:01:21;3.53;;;2.80;;
6348;SDS011;3207;42.648;23.406;2023-11-21T08:03:48;3.47;;;3.00;;
6348;SDS011;3207;42.648;23.406;2023-11-21T08:06:18;3.13;;;2.63;;
6348;SDS011;3207;42.648;23.406;2023-11-21T08:08:45;3.83;;;2.70;;
6348;SDS011;3207;42.648;23.406;2023-11-21T08:11:12;5.57;;;2.80;;
6348;SDS011;3207;42.648;23.406;2023-11-21T08:13:39;3.90;;;2.83;;
6348;SDS011;3207;42.648;23.406;2023-11-21T08:16:06;3.13;;;2.83;;
6348;SDS011;3207;42.648;23.406;2023-11-21T08:18:32;3.10;;;2.67;;
6348;SDS011;3207;42.648;23.406;2023-11-21T08:21:00;2.27;;;2.10;;
6348;SDS011;3207;42.648;23.406;2023-11-21T08:23:29;3.00;;;2.80;;
6348;SDS011;3207;42.648;23.406;2023-11-21T08:25:56;3.03;;;2.73;;
6348;SDS011;3207;42.648;23.406;2023-11-21T08:28:22;3.43;;;2.33;;
6348;SDS011;3207;42.648;23.406;2023-11-21T08:30:51;2.60;;;2.37;;
6348;SDS011;3207;42.648;23.406;2023-11-21T08:33:17;4.53;;;2.53;;
6348;SDS011;3207;42.648;23.406;2023-11-21T08:35:44;2.83;;;2.50;;
6348;SDS011;3207;42.648;23.406;2023-11-21T08:38:11;5.30;;;2.93;;
6348;SDS011;3207;42.648;23.406;2023-11-21T08:40:38;2.63;;;2.30;;
6348;SDS011;3207;42.648;23.406;2023-11-21T08:43:05;2.50;;;2.30;;
6348;SDS011;3207;42.648;23.406;2023-11-21T08:45:33;4.37;;;2.30;;
6348;SDS011;3207;42.648;23.406;2023-11-21T08:48:00;2.13;;;2.03;;
6348;SDS011;3207;42.648;23.406;2023-11-21T08:50:26;3.20;;;2.43;;
6348;SDS011;3207;42.648;23.406;2023-11-21T08:52:53;2.90;;;2.33;;
6348;SDS011;3207;42.648;23.406;2023-11-21T08:55:20;2.97;;;2.10;;
6348;SDS011;3207;42.648;23.406;2023-11-21T08:57:47;3.33;;;2.67;;
6348;SDS011;3207;42.648;23.406;2023-11-21T09:00:14;5.33;;;2.87;;
6348;SDS011;3207;42.648;23.406;2023-11-21T09:02:42;3.57;;;2.17;;
6348;SDS011;3207;42.648;23.406;2023-11-21T09:05:09;4.13;;;2.53;;
6348;SDS011;3207;42.648;23.406;2023-11-21T09:07:36;4.67;;;2.33;;
6348;SDS011;3207;42.648;23.406;2023-11-21T09:10:03;2.83;;;2.10;;
6348;SDS011;3207;42.648;23.406;2023-11-21T09:12:32;2.30;;;2.00;;
6348;SDS011;3207;42.648;23.406;2023-11-21T09:15:01;4.37;;;2.50;;
6348;SDS011;3207;42.648;23.406;2023-11-21T09:17:29;3.00;;;2.63;;
6348;SDS011;3207;42.648;23.406;2023-11-21T09:19:56;3.93;;;2.40;;
6348;SDS011;3207;42.648;23.406;2023-11-21T09:22:22;3.13;;;2.40;;
6348;SDS011;3207;42.648;23.406;2023-11-21T09:24:50;2.67;;;2.20;;
6348;SDS011;3207;42.648;23.406;2023-11-21T09:27:17;3.77;;;2.73;;
6348;SDS011;3207;42.648;23.406;2023-11-21T09:29:43;2.20;;;2.10;;
6348;SDS011;3207;42.648;23.406;2023-11-21T09:32:12;3.60;;;2.47;;
6348;SDS011;3207;42.648;23.406;2023-11-21T09:34:41;4.07;;;2.20;;
6348;SDS011;3207;42.648;23.406;2023-11-21T09:37:07;4.23;;;2.27;;
6348;SDS011;3207;42.648;23.406;2023-11-21T09:39:34;4.33;;;2.33;;
6348;SDS011;3207;42.648;23.406;2023-11-21T09:42:04;4.20;;;2.47;;
6348;SDS011;3207;42.648;23.406;2023-11-21T09:44:32;2.40;;;2.20;;
6348;SDS011;3207;42.648;23.406;2023-11-21T09:47:01;2.70;;;2.33;;
6348;SDS011;3207;42.648;23.406;2023-11-21T09:49:29;4.77;;;2.03;;
6348;SDS011;3207;42.648;23.406;2023-11-21T09:52:00;4.87;;;2.60;;
6348;SDS011;3207;42.648;23.406;2023-11-21T09:54:28;5.30;;;2.53;;
6348;SDS011;3207;42.648;23.406;2023-11-21T09:56:56;2.70;;;1.93;;
6348;SDS011;3207;42.648;23.406;2023-11-21T09:59:23;6.00;;;2.70;;
6348;SDS011;3207;42.648;23.406;2023-11-21T10:01:50;4.03;;;2.10;;
6348;SDS011;3207;42.648;23.406;2023-11-21T10:04:17;4.03;;;2.60;;
6348;SDS011;3207;42.648;23.406;2023-11-21T10:06:46;3.23;;;2.20;;
6348;SDS011;3207;42.648;23.406;2023-11-21T10:09:14;2.70;;;2.30;;
6348;SDS011;3207;42.648;23.406;2023-11-21T10:11:42;4.77;;;2.77;;
6348;SDS011;3207;42.648;23.406;2023-11-21T10:14:10;2.80;;;2.60;;
6348;SDS011;3207;42.648;23.406;2023-11-21T10:16:38;4.17;;;2.53;;
6348;SDS011;3207;42.648;23.406;2023-11-21T10:19:05;2.77;;;2.13;;
6348;SDS011;3207;42.648;23.406;2023-11-21T10:21:32;4.00;;;2.60;;
6348;SDS011;3207;42.648;23.406;2023-11-21T10:24:00;2.60;;;2.40;;
6348;SDS011;3207;42.648;23.406;2023-11-21T10:26:27;3.10;;;2.40;;
6348;SDS011;3207;42.648;23.406;2023-11-21T10:28:57;3.13;;;2.60;;
6348;SDS011;3207;42.648;23.406;2023-11-21T10:31:23;7.40;;;3.03;;
6348;SDS011;3207;42.648;23.406;2023-11-21T10:33:50;4.87;;;2.67;;
6348;SDS011;3207;42.648;23.406;2023-11-21T10:36:27;2.87;;;2.33;;
6348;SDS011;3207;42.648;23.406;2023-11-21T10:38:54;4.07;;;2.70;;
6348;SDS011;3207;42.648;23.406;2023-11-21T10:41:23;2.60;;;2.40;;
6348;SDS011;3207;42.648;23.406;2023-11-21T10:43:52;2.53;;;2.20;;
6348;SDS011;3207;42.648;23.406;2023-11-21T10:46:19;2.93;;;2.43;;
6348;SDS011;3207;42.648;23.406;2023-11-21T10:48:51;4.40;;;2.43;;
6348;SDS011;3207;42.648;23.406;2023-11-21T10:51:18;3.33;;;2.50;;
6348;SDS011;3207;42.648;23.406;2023-11-21T10:53:46;2.53;;;2.33;;
6348;SDS011;3207;42.648;23.406;2023-11-21T10:56:16;3.57;;;2.33;;
6348;SDS011;3207;42.648;23.406;2023-11-21T10:58:46;2.80;;;2.40;;
6348;SDS011;3207;42.648;23.406;2023-11-21T11:01:14;3.10;;;2.70;;
6348;SDS011;3207;42.648;23.406;2023-11-21T11:03:42;2.92;;;2.28;;
6348;SDS011;3207;42.648;23.406;2023-11-21T11:06:10;3.27;;;2.53;;
6348;SDS011;3207;42.648;23.406;2023-11-21T11:08:38;4.30;;;2.30;;
6348;SDS011;3207;42.648;23.406;2023-11-21T11:11:06;5.50;;;2.33;;
6348;SDS011;3207;42.648;23.406;2023-11-21T11:13:32;2.63;;;1.83;;
6348;SDS011;3207;42.648;23.406;2023-11-21T11:16:00;3.20;;;2.10;;
6348;SDS011;3207;42.648;23.406;2023-11-21T11:18:28;2.58;;;2.15;;
6348;SDS011;3207;42.648;23.406;2023-11-21T11:20:56;5.63;;;3.07;;
6348;SDS011;3207;42.648;23.406;2023-11-21T11:23:30;2.47;;;2.20;;
6348;SDS011;3207;42.648;23.406;2023-11-21T11:26:03;3.20;;;1.90;;
6348;SDS011;3207;42.648;23.406;2023-11-21T11:28:35;3.30;;;2.03;;
6348;SDS011;3207;42.648;23.406;2023-11-21T11:31:09;5.72;;;2.22;;
6348;SDS011;3207;42.648;23.406;2023-11-21T11:33:39;3.70;;;2.63;;
6348;SDS011;3207;42.648;23.406;2023-11-21T11:36:09;3.23;;;2.70;;
6348;SDS011;3207;42.648;23.406;2023-11-21T11:38:37;2.50;;;2.27;;
6348;SDS011;3207;42.648;23.406;2023-11-21T11:41:04;4.23;;;2.53;;
6348;SDS011;3207;42.648;23.406;2023-11-21T11:43:31;4.43;;;2.90;;
6348;SDS011;3207;42.648;23.406;2023-11-21T11:46:06;5.83;;;3.43;;
6348;SDS011;3207;42.648;23.406;2023-11-21T11:48:34;5.97;;;4.17;;
6348;SDS011;3207;42.648;23.406;2023-11-21T11:51:03;4.78;;;3.22;;
6348;SDS011;3207;42.648;23.406;2023-11-21T11:53:33;5.80;;;3.83;;
6348;SDS011;3207;42.648;23.406;2023-11-21T11:56:13;7.55;;;3.63;;
6348;SDS011;3207;42.648;23.406;2023-11-21T11:58:51;3.90;;;2.92;;
6348;SDS011;3207;42.648;23.406;2023-11-21T12:01:19;5.18;;;3.58;;
6348;SDS011;3207;42.648;23.406;2023-11-21T12:06:32;5.95;;;4.22;;
6348;SDS011;3207;42.648;23.406;2023-11-21T12:09:00;7.68;;;4.68;;
6348;SDS011;3207;42.648;23.406;2023-11-21T12:11:30;4.05;;;2.88;;
6348;SDS011;3207;42.648;23.406;2023-11-21T12:13:56;3.85;;;2.80;;
6348;SDS011;3207;42.648;23.406;2023-11-21T12:16:26;6.45;;;3.47;;
6348;SDS011;3207;42.648;23.406;2023-11-21T12:18:53;3.25;;;2.35;;
6348;SDS011;3207;42.648;23.406;2023-11-21T12:21:23;3.72;;;2.53;;
6348;SDS011;3207;42.648;23.406;2023-11-21T12:23:49;3.53;;;2.50;;
6348;SDS011;3207;42.648;23.406;2023-11-21T12:26:16;4.07;;;3.47;;
6348;SDS011;3207;42.648;23.406;2023-11-21T12:28:43;4.15;;;2.33;;
6348;SDS011;3207;42.648;23.406;2023-11-21T12:31:10;5.60;;;3.40;;
6348;SDS011;3207;42.648;23.406;2023-11-21T12:33:38;4.80;;;2.85;;
6348;SDS011;3207;42.648;23.406;2023-11-21T12:36:06;7.57;;;2.70;;
6348;SDS011;3207;42.648;23.406;2023-11-21T12:38:35;3.72;;;3.30;;
6348;SDS011;3207;42.648;23.406;2023-11-21T12:41:02;4.60;;;2.95;;
6348;SDS011;3207;42.648;23.406;2023-11-21T12:43:29;4.53;;;4.13;;
6348;SDS011;3207;42.648;23.406;2023-11-21T12:46:04;4.05;;;3.65;;
6348;SDS011;3207;42.648;23.406;2023-11-21T12:48:31;4.85;;;3.65;;
6348;SDS011;3207;42.648;23.406;2023-11-21T12:51:02;6.43;;;4.20;;
6348;SDS011;3207;42.648;23.406;2023-11-21T12:53:28;3.83;;;3.28;;
6348;SDS011;3207;42.648;23.406;2023-11-21T12:56:02;4.97;;;3.40;;
6348;SDS011;3207;42.648;23.406;2023-11-21T12:58:28;4.57;;;2.70;;
6348;SDS011;3207;42.648;23.406;2023-11-21T13:00:55;4.97;;;3.80;;
6348;SDS011;3207;42.648;23.406;2023-11-21T13:03:24;4.53;;;3.17;;
6348;SDS011;3207;42.648;23.406;2023-11-21T13:05:52;3.28;;;2.92;;
6348;SDS011;3207;42.648;23.406;2023-11-21T13:08:24;4.28;;;2.65;;
6348;SDS011;3207;42.648;23.406;2023-11-21T13:10:51;4.35;;;2.70;;
6348;SDS011;3207;42.648;23.406;2023-11-21T13:13:19;4.60;;;2.45;;
6348;SDS011;3207;42.648;23.406;2023-11-21T13:15:47;4.25;;;3.70;;
6348;SDS011;3207;42.648;23.406;2023-11-21T13:18:14;6.40;;;3.97;;
6348;SDS011;3207;42.648;23.406;2023-11-21T13:20:41;8.05;;;5.95;;
6348;SDS011;3207;42.648;23.406;2023-11-21T13:23:08;4.65;;;3.10;;
6348;SDS011;3207;42.648;23.406;2023-11-21T13:25:38;6.70;;;3.95;;
6348;SDS011;3207;42.648;23.406;2023-11-21T13:28:06;5.90;;;3.92;;
6348;SDS011;3207;42.648;23.406;2023-11-21T13:30:33;3.42;;;3.05;;
6348;SDS011;3207;42.648;23.406;2023-11-21T13:32:59;2.50;;;2.30;;
6348;SDS011;3207;42.648;23.406;2023-11-21T13:35:27;5.55;;;2.53;;
6348;SDS011;3207;42.648;23.406;2023-11-21T13:38:02;6.25;;;2.65;;
6348;SDS011;3207;42.648;23.406;2023-11-21T13:40:30;6.32;;;2.83;;
6348;SDS011;3207;42.648;23.406;2023-11-21T13:43:00;3.45;;;2.30;;
6348;SDS011;3207;42.648;23.406;2023-11-21T13:45:30;2.72;;;2.50;;
6348;SDS011;3207;42.648;23.406;2023-11-21T13:47:56;4.15;;;3.35;;
6348;SDS011;3207;42.648;23.406;2023-11-21T13:50:24;3.40;;;2.58;;
6348;SDS011;3207;42.648;23.406;2023-11-21T13:52:55;6.18;;;2.42;;
6348;SDS011;3207;42.648;23.406;2023-11-21T13:55:22;3.20;;;2.45;;
6348;SDS011;3207;42.648;23.406;2023-11-21T13:57:50;3.60;;;2.85;;
6348;SDS011;3207;42.648;23.406;2023-11-21T14:00:19;2.88;;;2.22;;
6348;SDS011;3207;42.648;23.406;2023-11-21T14:03:03;6.82;;;3.25;;
6348;SDS011;3207;42.648;23.406;2023-11-21T14:05:31;5.30;;;3.22;;
6348;SDS011;3207;42.648;23.406;2023-11-21T14:07:59;4.18;;;2.40;;
6348;SDS011;3207;42.648;23.406;2023-11-21T14:10:30;3.30;;;2.63;;
6348;SDS011;3207;42.648;23.406;2023-11-21T14:13:05;4.53;;;3.57;;
6348;SDS011;3207;42.648;23.406;2023-11-21T14:15:33;5.65;;;2.47;;
6348;SDS011;3207;42.648;23.406;2023-11-21T14:18:03;8.50;;;3.35;;
6348;SDS011;3207;42.648;23.406;2023-11-21T14:20:33;6.15;;;2.97;;
6348;SDS011;3207;42.648;23.406;2023-11-21T14:23:01;5.40;;;2.80;;
6348;SDS011;3207;42.648;23.406;2023-11-21T14:25:28;6.60;;;3.50;;
6348;SDS011;3207;42.648;23.406;2023-11-21T14:27:54;4.30;;;2.95;;
6348;SDS011;3207;42.648;23.406;2023-11-21T14:30:22;5.07;;;3.22;;
6348;SDS011;3207;42.648;23.406;2023-11-21T14:32:51;6.30;;;3.87;;
6348;SDS011;3207;42.648;23.406;2023-11-21T14:35:18;4.13;;;3.13;;
6348;SDS011;3207;42.648;23.406;2023-11-21T14:37:44;7.47;;;3.80;;
6348;SDS011;3207;42.648;23.406;2023-11-21T14:40:12;5.73;;;4.40;;
6348;SDS011;3207;42.648;23.406;2023-11-21T14:42:41;5.00;;;3.50;;
6348;SDS011;3207;42.648;23.406;2023-11-21T14:45:08;5.63;;;4.22;;
6348;SDS011;3207;42.648;23.406;2023-11-21T14:47:37;5.60;;;3.60;;
6348;SDS011;3207;42.648;23.406;2023-11-21T14:50:10;5.28;;;3.67;;
6348;SDS011;3207;42.648;23.406;2023-11-21T14:53:05;5.63;;;3.67;;